Airport View

Enter AWOS ICAO identifier for current METAR.

ex. KFNL

KPIE 101453Z 05005KT 10SM CLR 31/26 A3013 RMK AO2 SLP201 T03060261 51007

10 Aug 2020 15:33

Phone: 727-531-3456

Other Area AWOS: KCLW - KTPA - KSPG - KMCF

TAF KPIE 101139Z 1012/1112 VRB03KT P6SM FEW250 FM101600 04006KT P6SM VCTS SCT030CB BKN250 FM102000 34006KT P6SM VCTS SCT040CB BKN060 BKN120 FM110300 VRB03KT P6SM FEW060 SCT250